Castroville, Texas
Current Conditions -  °F | °C
As of 4:35 PM on Monday 24 Nov 2014 (Local Time) from KCVB Reporting Station
Clear Clear  
Wind Chill: 65°   Ceiling: Unl
Heat Index: 65°   Visibility: 7mi
Dew Point: 26°   Wind: 6mph
Humidity: 23%   Direction: 50°NE
Pressure: 30.05"   Gusts: NA
Location:  29.36°N, 98.88°W
Report Text: KCVB 242235Z AUTO 05005KT 7SM CLR 18/M03 A3005 RMK AO2 T01811035
Loading
Personal Weather Stations






























Interactive Weather Map New forecast layout! Learn more

10-Day Weather Forecast

Advertisements
Track Severe Weather on mobile